Time;durP1;ratioP1;P1;durP2;ratioP2;P2;SDS_P1;SDS_P2;PMS_P1;PMS_P2;Temp;Humidity;BMP_temperature;BMP_pressure;BME280_temperature;BME280_humidity;BME280_pressure;Samples;Min_cycle;Max_cycle;Signal;HPM_P1;HPM_P2
2024/01/15 00:01:02;;;;;;;26.80;12.87;;;;;;;;;;4873776;29;20554;-87
2024/01/15 00:04:20;;;;;;;25.30;11.80;;;;;;;;;;4862528;29;20558;-87
2024/01/15 00:07:26;;;;;;;27.73;14.30;;;;;;;;;;4852312;29;20554;-87
2024/01/15 00:10:30;;;;;;;29.73;14.20;;;;;;;;;;4862456;29;20550;-87
2024/01/15 00:13:36;;;;;;;28.27;13.40;;;;;;;;;;4873134;29;20605;-87
2024/01/15 00:16:41;;;;;;;29.70;14.43;;;;;;;;;;4873222;29;20551;-87
2024/01/15 00:19:51;;;;;;;31.17;14.30;;;;;;;;;;4884012;29;20562;-87
2024/01/15 00:22:58;;;;;;;29.87;14.17;;;;;;;;;;4862794;29;20546;-87
2024/01/15 00:26:02;;;;;;;34.20;14.93;;;;;;;;;;4872730;29;20633;-87
2024/01/15 00:29:08;;;;;;;32.47;13.63;;;;;;;;;;4873241;29;21107;-87
2024/01/15 00:32:13;;;;;;;28.97;13.60;;;;;;;;;;4883202;29;20558;-87
2024/01/15 00:35:23;;;;;;;29.80;13.47;;;;;;;;;;4862596;29;20622;-87
2024/01/15 00:38:29;;;;;;;28.33;13.07;;;;;;;;;;4860724;29;20562;-87
2024/01/15 00:41:37;;;;;;;28.73;13.53;;;;;;;;;;4862333;29;20563;-87
2024/01/15 00:44:42;;;;;;;31.47;13.57;;;;;;;;;;4882838;29;20638;-87
2024/01/15 00:47:46;;;;;;;26.37;13.57;;;;;;;;;;4861395;29;20628;-87
2024/01/15 00:50:51;;;;;;;32.27;14.80;;;;;;;;;;4861432;29;20554;-87
2024/01/15 00:53:55;;;;;;;32.57;13.93;;;;;;;;;;4861643;29;20605;-87
2024/01/15 00:57:00;;;;;;;30.80;13.93;;;;;;;;;;4861329;29;20559;-87
2024/01/15 01:00:06;;;;;;;27.53;13.70;;;;;;;;;;4861261;29;20555;-86
2024/01/15 01:03:10;;;;;;;28.97;13.43;;;;;;;;;;4882707;29;20569;-87
2024/01/15 01:06:14;;;;;;;31.03;14.07;;;;;;;;;;4860922;29;20630;-87
2024/01/15 01:09:18;;;;;;;28.00;13.13;;;;;;;;;;4861124;29;20551;-87
2024/01/15 01:12:23;;;;;;;27.47;13.53;;;;;;;;;;4871362;29;20558;-87
2024/01/15 01:15:28;;;;;;;30.03;13.47;;;;;;;;;;4860719;29;20701;-87
2024/01/15 01:18:32;;;;;;;28.53;13.43;;;;;;;;;;4871463;29;20554;-87
2024/01/15 01:21:37;;;;;;;26.37;12.23;;;;;;;;;;4871825;29;20554;-87
2024/01/15 01:24:43;;;;;;;27.23;13.50;;;;;;;;;;4860715;29;20634;-87
2024/01/15 01:27:47;;;;;;;28.27;12.97;;;;;;;;;;4860764;29;20549;-87
2024/01/15 01:30:51;;;;;;;36.83;15.17;;;;;;;;;;4871190;29;21111;-87
2024/01/15 01:33:56;;;;;;;28.73;12.87;;;;;;;;;;4860419;29;20605;-87
2024/01/15 01:37:00;;;;;;;28.07;12.17;;;;;;;;;;4861099;29;20554;-87
2024/01/15 01:40:17;;;;;;;28.40;13.77;;;;;;;;;;4871052;29;20562;-87
2024/01/15 01:43:21;;;;;;;29.20;12.33;;;;;;;;;;4871016;29;20563;-87
2024/01/15 01:46:27;;;;;;;32.63;12.97;;;;;;;;;;4860435;29;20558;-87
2024/01/15 01:49:38;;;;;;;27.47;12.77;;;;;;;;;;4882264;29;20547;-87
2024/01/15 01:52:43;;;;;;;30.43;12.73;;;;;;;;;;4871032;29;20570;-87
2024/01/15 01:55:48;;;;;;;26.43;12.43;;;;;;;;;;4881687;29;20639;-87
2024/01/15 01:59:02;;;;;;;26.27;12.30;;;;;;;;;;4860904;29;20559;-87
2024/01/15 02:02:09;;;;;;;29.57;12.23;;;;;;;;;;4850254;29;20917;-87
2024/01/15 02:05:19;;;;;;;26.50;12.47;;;;;;;;;;4849626;29;20634;-87
2024/01/15 02:08:52;;;;;;;28.53;12.23;;;;;;;;;;4870695;29;20551;-87
2024/01/15 02:12:00;;;;;;;28.10;12.30;;;;;;;;;;4871214;29;20566;-87
2024/01/15 02:15:05;;;;;;;24.00;11.60;;;;;;;;;;4881086;29;20669;-87
2024/01/15 02:18:16;;;;;;;25.97;11.60;;;;;;;;;;4860419;29;20558;-87
2024/01/15 02:21:20;;;;;;;24.43;10.90;;;;;;;;;;4870611;29;20559;-87
2024/01/15 02:24:25;;;;;;;26.77;11.93;;;;;;;;;;4881934;29;20633;-87
2024/01/15 02:27:29;;;;;;;27.77;11.37;;;;;;;;;;4860167;29;20554;-87
2024/01/15 02:30:37;;;;;;;23.17;11.70;;;;;;;;;;4870561;29;21136;-87
2024/01/15 02:33:45;;;;;;;26.90;11.20;;;;;;;;;;4870029;29;20965;-87
2024/01/15 02:36:49;;;;;;;24.90;11.87;;;;;;;;;;4859453;29;20554;-87
2024/01/15 02:39:54;;;;;;;23.87;11.23;;;;;;;;;;4859393;29;20941;-87
2024/01/15 02:42:59;;;;;;;28.87;12.43;;;;;;;;;;4838822;29;20554;-87
2024/01/15 02:46:03;;;;;;;24.77;11.00;;;;;;;;;;4869601;29;20649;-87
2024/01/15 02:49:14;;;;;;;30.83;12.53;;;;;;;;;;4848668;29;21004;-87
2024/01/15 02:52:26;;;;;;;23.10;11.67;;;;;;;;;;4858962;29;20563;-87
2024/01/15 02:55:35;;;;;;;27.53;12.00;;;;;;;;;;4869082;29;21222;-87
2024/01/15 02:58:42;;;;;;;27.43;11.93;;;;;;;;;;4859367;29;20559;-87
2024/01/15 03:01:47;;;;;;;26.27;12.03;;;;;;;;;;4848593;29;20558;-87
2024/01/15 03:04:51;;;;;;;24.03;11.43;;;;;;;;;;4869153;29;20996;-87
2024/01/15 03:07:55;;;;;;;24.73;11.27;;;;;;;;;;4858906;29;21116;-86
2024/01/15 03:10:59;;;;;;;27.43;12.70;;;;;;;;;;4859059;29;21122;-87
2024/01/15 03:14:03;;;;;;;24.63;11.17;;;;;;;;;;4869445;29;20614;-87
2024/01/15 03:17:09;;;;;;;24.60;11.40;;;;;;;;;;4858522;29;20559;-87
2024/01/15 03:20:14;;;;;;;28.47;11.60;;;;;;;;;;4858690;29;20550;-87
2024/01/15 03:23:18;;;;;;;23.93;10.80;;;;;;;;;;4858534;29;20559;-87
2024/01/15 03:26:23;;;;;;;23.60;10.57;;;;;;;;;;4880479;29;20550;-87
2024/01/15 03:29:27;;;;;;;24.63;10.80;;;;;;;;;;4869582;29;20567;-87
2024/01/15 03:32:31;;;;;;;21.73;9.67;;;;;;;;;;4881013;29;20550;-87
2024/01/15 03:35:36;;;;;;;20.90;10.10;;;;;;;;;;4869249;29;20622;-87
2024/01/15 03:38:44;;;;;;;20.00;9.60;;;;;;;;;;4865884;29;20914;-87
2024/01/15 03:41:49;;;;;;;19.53;10.07;;;;;;;;;;4858982;29;20551;-87
2024/01/15 03:44:53;;;;;;;19.03;8.80;;;;;;;;;;4868995;29;21025;-87
2024/01/15 03:47:57;;;;;;;20.27;9.63;;;;;;;;;;4858163;29;20622;-87
2024/01/15 03:51:01;;;;;;;18.13;8.67;;;;;;;;;;4869397;29;20886;-87
2024/01/15 03:54:07;;;;;;;16.47;8.50;;;;;;;;;;4869015;29;20602;-87
2024/01/15 03:57:11;;;;;;;16.77;8.73;;;;;;;;;;4858601;29;20551;-87
2024/01/15 04:00:17;;;;;;;17.27;7.67;;;;;;;;;;4869295;29;20547;-87
2024/01/15 04:03:25;;;;;;;16.30;8.03;;;;;;;;;;4869813;29;20911;-87
2024/01/15 04:06:29;;;;;;;17.40;7.30;;;;;;;;;;4869824;29;20913;-87
2024/01/15 04:09:33;;;;;;;14.73;7.23;;;;;;;;;;4879542;29;20551;-87
2024/01/15 04:12:38;;;;;;;14.10;7.17;;;;;;;;;;4860332;29;20554;-87
2024/01/15 04:15:43;;;;;;;13.57;6.97;;;;;;;;;;4882963;29;20662;-87
2024/01/15 04:18:48;;;;;;;15.00;6.43;;;;;;;;;;4862125;29;20552;-87
2024/01/15 04:21:51;;;;;;;15.03;6.63;;;;;;;;;;4862594;29;20547;-87
2024/01/15 04:24:56;;;;;;;11.83;5.83;;;;;;;;;;4862145;29;20623;-87
2024/01/15 04:28:00;;;;;;;12.90;6.73;;;;;;;;;;4873261;29;20556;-87
2024/01/15 04:31:07;;;;;;;14.70;6.90;;;;;;;;;;4873138;29;20564;-87
2024/01/15 04:34:12;;;;;;;11.00;6.30;;;;;;;;;;4841416;29;20669;-87
2024/01/15 04:37:16;;;;;;;11.47;5.70;;;;;;;;;;4883110;29;20547;-87
2024/01/15 04:40:20;;;;;;;11.57;6.03;;;;;;;;;;4862258;29;20548;-87
2024/01/15 04:43:24;;;;;;;12.77;6.03;;;;;;;;;;4862519;29;20544;-87
2024/01/15 04:46:30;;;;;;;10.30;5.27;;;;;;;;;;4862228;29;20547;-87
2024/01/15 04:49:34;;;;;;;11.07;5.73;;;;;;;;;;4872673;29;20552;-87
2024/01/15 04:52:38;;;;;;;10.13;5.97;;;;;;;;;;4862629;29;20547;-87
2024/01/15 04:55:42;;;;;;;12.07;5.70;;;;;;;;;;4872555;29;20662;-87
2024/01/15 04:58:46;;;;;;;9.60;5.50;;;;;;;;;;4861685;29;20551;-87
2024/01/15 05:01:50;;;;;;;9.43;5.23;;;;;;;;;;4872504;29;20551;-87
2024/01/15 05:04:56;;;;;;;10.10;5.17;;;;;;;;;;4872644;29;20631;-87
2024/01/15 05:08:00;;;;;;;10.00;5.47;;;;;;;;;;4861669;29;20559;-87
2024/01/15 05:11:07;;;;;;;11.20;5.23;;;;;;;;;;4862052;29;20559;-87
2024/01/15 05:14:11;;;;;;;11.13;5.30;;;;;;;;;;4861796;29;20666;-87
2024/01/15 05:17:16;;;;;;;7.33;4.37;;;;;;;;;;4879408;29;20579;-87
2024/01/15 05:20:20;;;;;;;10.47;5.20;;;;;;;;;;4865726;29;20551;-87
2024/01/15 05:23:25;;;;;;;9.33;5.27;;;;;;;;;;4865042;29;20544;-87
2024/01/15 05:26:29;;;;;;;8.70;4.90;;;;;;;;;;4865997;29;20543;-87
2024/01/15 05:29:33;;;;;;;12.87;5.60;;;;;;;;;;4866010;29;20551;-87
2024/01/15 05:32:38;;;;;;;10.23;5.50;;;;;;;;;;4865803;29;20547;-87
2024/01/15 05:35:42;;;;;;;7.43;4.37;;;;;;;;;;4865309;29;20658;-87
2024/01/15 05:38:47;;;;;;;10.10;5.10;;;;;;;;;;4876367;29;20567;-87
2024/01/15 05:41:51;;;;;;;9.87;5.03;;;;;;;;;;4865713;29;20902;-87
2024/01/15 05:44:55;;;;;;;9.13;5.03;;;;;;;;;;4866253;29;20622;-87
2024/01/15 05:47:59;;;;;;;9.47;5.30;;;;;;;;;;4866071;29;20625;-87
2024/01/15 05:51:03;;;;;;;11.33;5.23;;;;;;;;;;4865838;29;20551;-87
2024/01/15 05:54:08;;;;;;;9.17;4.53;;;;;;;;;;4865826;29;20554;-87
2024/01/15 05:57:12;;;;;;;9.43;4.43;;;;;;;;;;4866103;29;20552;-87
2024/01/15 06:00:17;;;;;;;9.57;4.77;;;;;;;;;;4865816;29;20543;-87
2024/01/15 06:03:20;;;;;;;12.40;4.70;;;;;;;;;;4865294;29;20552;-87
2024/01/15 06:06:25;;;;;;;10.43;4.73;;;;;;;;;;4875651;29;20544;-87
2024/01/15 06:09:30;;;;;;;7.63;4.20;;;;;;;;;;4866451;29;20555;-87
2024/01/15 06:12:36;;;;;;;9.07;4.10;;;;;;;;;;4877897;29;20551;-87
2024/01/15 06:15:40;;;;;;;8.40;4.30;;;;;;;;;;4865822;29;20658;-87
2024/01/15 06:18:44;;;;;;;8.07;4.27;;;;;;;;;;4885503;29;20544;-87
2024/01/15 06:21:49;;;;;;;8.20;4.10;;;;;;;;;;4902910;29;20547;-87
2024/01/15 06:24:53;;;;;;;8.67;4.47;;;;;;;;;;4864629;29;20630;-87
2024/01/15 06:27:58;;;;;;;7.40;4.30;;;;;;;;;;4888602;29;20547;-87
2024/01/15 06:31:03;;;;;;;8.87;4.10;;;;;;;;;;4867774;29;20547;-87
2024/01/15 06:34:08;;;;;;;6.93;3.80;;;;;;;;;;4866978;29;20543;-87
2024/01/15 06:37:13;;;;;;;7.83;3.93;;;;;;;;;;4869730;29;20564;-87
2024/01/15 06:40:21;;;;;;;9.00;4.37;;;;;;;;;;4868745;29;20907;-87
2024/01/15 06:43:26;;;;;;;8.57;3.73;;;;;;;;;;4867915;29;20563;-87
2024/01/15 06:46:32;;;;;;;7.40;3.80;;;;;;;;;;4868265;29;20556;-87
2024/01/15 06:49:37;;;;;;;8.17;4.27;;;;;;;;;;4880551;29;20559;-85
2024/01/15 06:52:42;;;;;;;6.73;3.20;;;;;;;;;;4890356;29;20560;-88
2024/01/15 06:55:50;;;;;;;7.20;4.23;;;;;;;;;;4868851;29;20655;-88
2024/01/15 06:58:58;;;;;;;8.33;4.10;;;;;;;;;;4859989;29;20563;-87
2024/01/15 07:02:07;;;;;;;6.97;4.17;;;;;;;;;;4870015;29;20555;-89
2024/01/15 07:05:11;;;;;;;7.50;4.07;;;;;;;;;;4880431;29;20622;-85
2024/01/15 07:08:15;;;;;;;13.00;4.80;;;;;;;;;;4869299;29;20555;-86
2024/01/15 07:11:19;;;;;;;8.67;4.50;;;;;;;;;;4878731;29;20567;-86
2024/01/15 07:14:24;;;;;;;11.63;6.20;;;;;;;;;;4878965;29;20630;-88
2024/01/15 07:17:58;;;;;;;11.47;6.57;;;;;;;;;;4883570;29;20567;-88
2024/01/15 07:21:03;;;;;;;11.23;5.70;;;;;;;;;;4889364;29;20559;-89
2024/01/15 07:24:08;;;;;;;8.17;4.80;;;;;;;;;;4868862;29;20555;-86
2024/01/15 07:27:13;;;;;;;10.50;5.80;;;;;;;;;;4878781;29;20555;-85
2024/01/15 07:30:17;;;;;;;7.17;3.93;;;;;;;;;;4857560;29;20560;-85
2024/01/15 07:33:22;;;;;;;24.23;12.63;;;;;;;;;;4867746;29;20559;-85
2024/01/15 07:36:26;;;;;;;19.33;8.97;;;;;;;;;;4880276;29;20606;-86
2024/01/15 07:39:30;;;;;;;9.53;5.53;;;;;;;;;;4867606;29;20568;-85
2024/01/15 07:42:35;;;;;;;11.07;6.03;;;;;;;;;;4877915;29;20564;-85
2024/01/15 07:55:45;;;;;;;8.23;4.03;;;;;;;;;;4843348;29;21047;-87
2024/01/15 07:59:47;;;;;;;8.23;4.07;;;;;;;;;;4843012;29;20577;-88
2024/01/15 08:02:53;;;;;;;7.23;4.40;;;;;;;;;;4832531;29;20622;-88
2024/01/15 08:05:59;;;;;;;6.33;3.87;;;;;;;;;;4891864;29;20627;-88
2024/01/15 08:09:03;;;;;;;8.17;4.03;;;;;;;;;;4880496;29;20571;-88
2024/01/15 08:12:09;;;;;;;6.40;4.00;;;;;;;;;;4880782;29;20934;-88
2024/01/15 08:15:14;;;;;;;6.53;3.73;;;;;;;;;;4869187;29;20658;-87
2024/01/15 08:18:18;;;;;;;7.33;3.57;;;;;;;;;;4892128;29;20563;-88
2024/01/15 08:21:22;;;;;;;5.87;3.50;;;;;;;;;;4880759;29;20563;-88
2024/01/15 08:24:27;;;;;;;7.67;4.07;;;;;;;;;;4879743;29;20630;-88
2024/01/15 08:27:31;;;;;;;5.60;3.67;;;;;;;;;;4867867;29;20559;-88
2024/01/15 08:30:36;;;;;;;6.33;3.43;;;;;;;;;;4868574;29;20559;-88
2024/01/15 08:33:40;;;;;;;6.43;3.77;;;;;;;;;;4859575;29;20910;-88
2024/01/15 08:36:44;;;;;;;7.63;3.73;;;;;;;;;;4871659;29;20622;-89
2024/01/15 08:39:51;;;;;;;6.93;3.70;;;;;;;;;;4880188;29;20563;-89
2024/01/15 09:00:52;;;;;;;5.57;3.10;;;;;;;;;;4797765;29;20625;-90
2024/01/15 09:09:49;;;;;;;;;;;;;;;;;;;;;
2024/01/15 09:32:53;;;;;;;5.17;3.20;;;;;;;;;;4823069;29;20613;-93
2024/01/15 09:36:12;;;;;;;5.23;2.97;;;;;;;;;;4817391;29;20670;-93
2024/01/15 09:43:53;;;;;;;4.83;3.07;;;;;;;;;;4892540;29;20606;-92
2024/01/15 09:46:58;;;;;;;5.27;3.60;;;;;;;;;;4876009;29;20593;-91
2024/01/15 09:50:03;;;;;;;7.37;3.57;;;;;;;;;;4865377;29;20563;-89
2024/01/15 09:53:09;;;;;;;5.87;3.50;;;;;;;;;;4874547;29;21128;-83
2024/01/15 09:56:15;;;;;;;6.23;3.40;;;;;;;;;;4863956;29;20647;-83
2024/01/15 09:59:22;;;;;;;7.00;3.60;;;;;;;;;;4863145;29;20907;-90
2024/01/15 10:06:33;;;;;;;7.30;3.37;;;;;;;;;;4885874;29;20607;-90
2024/01/15 10:09:50;;;;;;;5.03;2.63;;;;;;;;;;4876244;29;21109;-90
2024/01/15 10:12:55;;;;;;;6.27;3.30;;;;;;;;;;4874502;29;20614;-88
2024/01/15 10:16:06;;;;;;;5.60;3.23;;;;;;;;;;4862445;29;20650;-88
2024/01/15 10:19:11;;;;;;;6.20;3.53;;;;;;;;;;4883417;29;20556;-89
2024/01/15 10:22:15;;;;;;;5.80;3.30;;;;;;;;;;4862539;29;20571;-89
2024/01/15 10:25:25;;;;;;;6.90;3.10;;;;;;;;;;4853396;29;20625;-90
2024/01/15 10:28:33;;;;;;;4.73;3.13;;;;;;;;;;4862565;29;20930;-89
2024/01/15 10:31:38;;;;;;;5.17;3.00;;;;;;;;;;4872632;29;20555;-90
2024/01/15 10:38:59;;;;;;;4.33;2.80;;;;;;;;;;4872495;29;20631;-89
2024/01/15 10:43:31;;;;;;;7.40;3.43;;;;;;;;;;4877879;29;20575;-89
2024/01/15 10:46:54;;;;;;;14.67;7.40;;;;;;;;;;4860806;29;20559;-89
2024/01/15 10:49:59;;;;;;;8.77;4.53;;;;;;;;;;4851355;29;20563;-89
2024/01/15 10:57:28;;;;;;;6.27;3.43;;;;;;;;;;4871781;29;20966;-89
2024/01/15 11:00:32;;;;;;;4.00;3.00;;;;;;;;;;4860555;29;20914;-89
2024/01/15 11:03:37;;;;;;;4.47;2.63;;;;;;;;;;4881883;29;21122;-90
2024/01/15 11:10:41;;;;;;;4.40;2.47;;;;;;;;;;4882221;29;20557;-85
2024/01/15 11:13:51;;;;;;;3.67;2.10;;;;;;;;;;4871279;29;20614;-88
2024/01/15 11:17:01;;;;;;;3.73;2.27;;;;;;;;;;4881900;29;20611;-89
2024/01/15 11:20:06;;;;;;;3.57;2.23;;;;;;;;;;4870565;29;21111;-88
2024/01/15 11:23:10;;;;;;;2.83;2.23;;;;;;;;;;4863642;29;20562;-88
2024/01/15 11:26:31;;;;;;;4.50;2.40;;;;;;;;;;4885043;29;21195;-89
2024/01/15 11:29:37;;;;;;;3.43;2.03;;;;;;;;;;4864007;29;20556;-89
2024/01/15 11:32:41;;;;;;;3.07;1.87;;;;;;;;;;4863612;29;20558;-89
2024/01/15 11:35:50;;;;;;;2.53;1.70;;;;;;;;;;4863407;29;20622;-89
2024/01/15 11:38:54;;;;;;;2.97;1.80;;;;;;;;;;4863721;29;20563;-89
2024/01/15 11:42:05;;;;;;;3.83;1.80;;;;;;;;;;4885780;29;20562;-88
2024/01/15 11:45:11;;;;;;;7.73;2.03;;;;;;;;;;4863388;29;20622;-88
2024/01/15 11:48:16;;;;;;;3.83;2.03;;;;;;;;;;4874100;29;20547;-87
2024/01/15 11:51:21;;;;;;;6.13;1.93;;;;;;;;;;4874073;29;21104;-88
2024/01/15 11:54:28;;;;;;;2.73;1.90;;;;;;;;;;4875501;29;20626;-88
2024/01/15 11:57:37;;;;;;;2.70;1.80;;;;;;;;;;4874211;29;20618;-88
2024/01/15 12:00:43;;;;;;;2.80;1.60;;;;;;;;;;4854614;29;20559;-89
2024/01/15 12:03:47;;;;;;;3.33;1.70;;;;;;;;;;4874781;29;20559;-88
2024/01/15 12:06:51;;;;;;;1.93;1.60;;;;;;;;;;4864455;29;20925;-88
2024/01/15 12:09:56;;;;;;;3.23;1.87;;;;;;;;;;4863573;29;20559;-88
2024/01/15 12:13:12;;;;;;;3.37;2.20;;;;;;;;;;4886380;29;20609;-89
2024/01/15 12:16:17;;;;;;;4.97;3.47;;;;;;;;;;4896017;29;20655;-88
2024/01/15 12:19:22;;;;;;;2.67;1.90;;;;;;;;;;4879070;29;20202;-89
2024/01/15 12:22:27;;;;;;;2.13;1.80;;;;;;;;;;4868379;29;20563;-89
2024/01/15 12:25:33;;;;;;;6.10;1.67;;;;;;;;;;4876739;29;20618;-89
2024/01/15 12:28:39;;;;;;;2.03;1.60;;;;;;;;;;4875093;29;20560;-90
2024/01/15 12:31:48;;;;;;;2.03;1.60;;;;;;;;;;4851812;29;20603;-90
2024/01/15 12:34:52;;;;;;;4.00;1.77;;;;;;;;;;4872816;29;20623;-89
2024/01/15 12:37:56;;;;;;;3.50;1.80;;;;;;;;;;4863168;29;20614;-89
2024/01/15 12:41:01;;;;;;;2.07;1.63;;;;;;;;;;4873248;29;20559;-89
2024/01/15 12:44:05;;;;;;;2.53;2.00;;;;;;;;;;4853945;29;20563;-88
2024/01/15 12:47:10;;;;;;;5.67;2.10;;;;;;;;;;4856228;29;20551;-88
2024/01/15 12:50:14;;;;;;;3.70;2.30;;;;;;;;;;4875488;29;20555;-88
2024/01/15 12:53:19;;;;;;;7.03;3.93;;;;;;;;;;4885854;29;20563;-88
2024/01/15 12:56:24;;;;;;;2.97;2.20;;;;;;;;;;4886657;29;20607;-88
2024/01/15 12:59:29;;;;;;;5.63;3.90;;;;;;;;;;4863963;29;20600;-90
2024/01/15 13:02:37;;;;;;;8.07;3.90;;;;;;;;;;4853316;29;20591;-89
2024/01/15 13:15:56;;;;;;;3.60;1.80;;;;;;;;;;4873068;29;20674;-90
2024/01/15 13:19:01;;;;;;;3.87;2.00;;;;;;;;;;4875442;29;20175;-89
2024/01/15 13:22:07;;;;;;;3.50;2.00;;;;;;;;;;4874575;29;20567;-90
2024/01/15 13:25:11;;;;;;;2.87;2.07;;;;;;;;;;4874981;29;20626;-90
2024/01/15 13:28:16;;;;;;;3.27;2.10;;;;;;;;;;4874824;29;21104;-91
2024/01/15 13:31:20;;;;;;;2.67;2.20;;;;;;;;;;4874504;29;20563;-89
2024/01/15 13:34:24;;;;;;;2.83;1.97;;;;;;;;;;4885840;29;20973;-90
2024/01/15 13:37:28;;;;;;;6.97;2.40;;;;;;;;;;4884490;29;20614;-90
2024/01/15 13:40:32;;;;;;;3.00;2.07;;;;;;;;;;4887073;29;20563;-90
2024/01/15 13:43:37;;;;;;;6.37;2.27;;;;;;;;;;4873827;29;20559;-90
2024/01/15 13:46:41;;;;;;;3.20;2.80;;;;;;;;;;4873614;29;20551;-90
2024/01/15 13:49:45;;;;;;;3.83;2.50;;;;;;;;;;4874823;29;20567;-90
2024/01/15 13:52:49;;;;;;;5.17;2.70;;;;;;;;;;4885246;29;20567;-90
2024/01/15 13:55:54;;;;;;;2.83;2.03;;;;;;;;;;4884924;29;20630;-90
2024/01/15 13:58:59;;;;;;;3.40;1.80;;;;;;;;;;4874382;29;20552;-90
2024/01/15 14:02:03;;;;;;;2.77;1.97;;;;;;;;;;4873321;29;20591;-90
2024/01/15 14:05:07;;;;;;;3.60;2.33;;;;;;;;;;4874838;29;21207;-90
2024/01/15 14:08:11;;;;;;;4.13;2.27;;;;;;;;;;4874125;29;20559;-90
2024/01/15 14:11:16;;;;;;;4.47;2.30;;;;;;;;;;4885833;29;20556;-90
2024/01/15 14:14:21;;;;;;;3.30;2.50;;;;;;;;;;4885722;29;20650;-89
2024/01/15 14:17:25;;;;;;;4.43;2.50;;;;;;;;;;4875550;29;20614;-90
2024/01/15 14:20:29;;;;;;;6.27;2.77;;;;;;;;;;4874846;29;20567;-90
2024/01/15 14:23:34;;;;;;;4.50;2.70;;;;;;;;;;4884317;29;20555;-90
2024/01/15 14:26:38;;;;;;;6.17;3.93;;;;;;;;;;4884911;29;20954;-90
2024/01/15 14:29:42;;;;;;;4.73;3.60;;;;;;;;;;4884035;29;20567;-90
2024/01/15 14:32:47;;;;;;;8.07;3.50;;;;;;;;;;4883188;29;21136;-90
2024/01/15 14:35:51;;;;;;;5.53;2.80;;;;;;;;;;4872449;29;21192;-89
2024/01/15 14:38:55;;;;;;;4.90;3.17;;;;;;;;;;4872341;29;20556;-90
2024/01/15 14:42:00;;;;;;;3.90;2.83;;;;;;;;;;4883190;29;20563;-90
2024/01/15 14:45:11;;;;;;;6.00;3.00;;;;;;;;;;4882916;29;20631;-90
2024/01/15 14:48:15;;;;;;;7.80;3.20;;;;;;;;;;4872596;29;20551;-90
2024/01/15 14:51:20;;;;;;;6.60;3.23;;;;;;;;;;4871945;29;20563;-90
2024/01/15 14:54:24;;;;;;;5.43;3.40;;;;;;;;;;4882478;29;20694;-90
2024/01/15 14:57:29;;;;;;;5.43;3.67;;;;;;;;;;4871116;29;20954;-90
2024/01/15 15:00:34;;;;;;;5.43;3.47;;;;;;;;;;4882920;29;21120;-90
2024/01/15 15:03:39;;;;;;;8.00;4.27;;;;;;;;;;4872806;29;20559;-89
2024/01/15 15:06:43;;;;;;;5.93;3.90;;;;;;;;;;4861656;29;20567;-91
2024/01/15 15:09:50;;;;;;;7.10;4.57;;;;;;;;;;4882951;29;20559;-90
2024/01/15 15:12:55;;;;;;;18.50;10.37;;;;;;;;;;4882246;29;20555;-90
2024/01/15 15:15:59;;;;;;;11.87;6.77;;;;;;;;;;4872740;29;20658;-87
2024/01/15 15:19:03;;;;;;;7.10;4.30;;;;;;;;;;4872928;29;20567;-87
2024/01/15 15:22:10;;;;;;;8.30;4.73;;;;;;;;;;4862584;29;20559;-87
2024/01/15 15:25:16;;;;;;;7.97;4.93;;;;;;;;;;4871855;29;20626;-87
2024/01/15 15:28:21;;;;;;;12.03;4.73;;;;;;;;;;4872232;29;20563;-87
2024/01/15 15:31:25;;;;;;;10.27;5.30;;;;;;;;;;4861460;29;20562;-87
2024/01/15 15:34:29;;;;;;;13.83;7.10;;;;;;;;;;4872787;29;20631;-85
2024/01/15 15:37:35;;;;;;;17.63;10.67;;;;;;;;;;4873404;29;20615;-85
2024/01/15 15:40:39;;;;;;;8.07;5.27;;;;;;;;;;4863046;29;20563;-86
2024/01/15 15:43:43;;;;;;;8.73;5.30;;;;;;;;;;4885123;29;20571;-84
2024/01/15 15:46:48;;;;;;;8.50;5.27;;;;;;;;;;4874621;29;20567;-84
2024/01/15 15:49:52;;;;;;;10.10;4.97;;;;;;;;;;4874662;29;20563;-84
2024/01/15 15:52:56;;;;;;;9.27;5.00;;;;;;;;;;4871639;29;20563;-87
2024/01/15 15:56:06;;;;;;;7.60;4.50;;;;;;;;;;4872105;29;20619;-87
2024/01/15 15:59:18;;;;;;;6.90;4.17;;;;;;;;;;4871661;29;20563;-87
2024/01/15 16:02:22;;;;;;;7.53;4.23;;;;;;;;;;4871997;29;20555;-87
2024/01/15 16:05:26;;;;;;;24.10;14.77;;;;;;;;;;4871788;29;20973;-87
2024/01/15 16:08:31;;;;;;;11.07;6.00;;;;;;;;;;4874214;29;20891;-87
2024/01/15 16:11:35;;;;;;;4.53;3.40;;;;;;;;;;4875256;29;20563;-87
2024/01/15 16:14:44;;;;;;;8.63;4.03;;;;;;;;;;4874922;29;20658;-87
2024/01/15 16:17:49;;;;;;;6.37;4.00;;;;;;;;;;4875043;29;20607;-87
2024/01/15 16:20:54;;;;;;;16.63;11.20;;;;;;;;;;4874513;29;20563;-87
2024/01/15 16:23:58;;;;;;;6.67;4.77;;;;;;;;;;4873881;29;20567;-87
2024/01/15 16:27:03;;;;;;;5.07;4.30;;;;;;;;;;4874552;29;20563;-87
2024/01/15 16:30:08;;;;;;;4.57;3.17;;;;;;;;;;4873787;29;20559;-87
2024/01/15 16:33:13;;;;;;;4.83;3.13;;;;;;;;;;4873363;29;20567;-87
2024/01/15 16:36:17;;;;;;;4.40;3.20;;;;;;;;;;4873301;29;21192;-87
2024/01/15 16:39:21;;;;;;;5.33;3.13;;;;;;;;;;4873419;29;21004;-87
2024/01/15 16:42:25;;;;;;;3.93;2.80;;;;;;;;;;4873235;29;20559;-87
2024/01/15 16:45:29;;;;;;;3.43;2.70;;;;;;;;;;4873211;29;20965;-87
2024/01/15 16:48:33;;;;;;;4.03;3.10;;;;;;;;;;4872774;29;20907;-87
2024/01/15 16:51:37;;;;;;;4.77;3.07;;;;;;;;;;4875044;29;21116;-87
2024/01/15 16:54:41;;;;;;;5.00;3.53;;;;;;;;;;4875081;29;20627;-87
2024/01/15 16:57:46;;;;;;;5.23;3.57;;;;;;;;;;4862109;29;20619;-87
2024/01/15 17:00:50;;;;;;;5.10;3.70;;;;;;;;;;4862250;29;20567;-87
2024/01/15 17:03:57;;;;;;;5.23;3.67;;;;;;;;;;4872527;29;20563;-86
2024/01/15 17:07:01;;;;;;;5.57;3.80;;;;;;;;;;4862411;29;20606;-87
2024/01/15 17:10:05;;;;;;;8.30;5.30;;;;;;;;;;4861837;29;20559;-87
2024/01/15 17:13:10;;;;;;;5.97;5.10;;;;;;;;;;4874307;29;20559;-87
2024/01/15 17:16:14;;;;;;;6.87;5.20;;;;;;;;;;4873024;29;20626;-87
2024/01/15 17:19:18;;;;;;;3.93;3.10;;;;;;;;;;4871697;29;20611;-87
2024/01/15 17:22:22;;;;;;;5.57;3.83;;;;;;;;;;4862825;29;20563;-87
2024/01/15 17:25:27;;;;;;;10.57;6.13;;;;;;;;;;4862367;29;20630;-87
2024/01/15 17:28:31;;;;;;;6.60;5.27;;;;;;;;;;4862734;29;20555;-87
2024/01/15 17:31:35;;;;;;;7.57;4.50;;;;;;;;;;4872467;29;20563;-87
2024/01/15 17:34:39;;;;;;;5.40;3.50;;;;;;;;;;4862208;29;20635;-87
2024/01/15 17:37:43;;;;;;;5.10;3.90;;;;;;;;;;4873564;29;20611;-87
2024/01/15 17:40:47;;;;;;;4.53;3.33;;;;;;;;;;4862471;29;20906;-87
2024/01/15 17:43:53;;;;;;;4.37;3.53;;;;;;;;;;4872241;29;20559;-88
2024/01/15 17:46:57;;;;;;;6.27;3.67;;;;;;;;;;4851708;29;20555;-87
2024/01/15 17:50:02;;;;;;;4.87;3.77;;;;;;;;;;4872411;29;20559;-87
2024/01/15 17:53:07;;;;;;;5.03;3.73;;;;;;;;;;4872758;29;20910;-87
2024/01/15 17:56:11;;;;;;;5.80;3.80;;;;;;;;;;4872283;29;20622;-87
2024/01/15 17:59:15;;;;;;;5.40;3.70;;;;;;;;;;4872389;29;21180;-87
2024/01/15 18:02:27;;;;;;;4.50;3.33;;;;;;;;;;4862041;29;20571;-87
2024/01/15 18:05:35;;;;;;;5.53;4.90;;;;;;;;;;4872192;29;20618;-88
2024/01/15 18:08:49;;;;;;;11.27;8.47;;;;;;;;;;4864751;29;20563;-87
2024/01/15 18:11:58;;;;;;;8.87;6.57;;;;;;;;;;4873097;29;20540;-87
2024/01/15 18:15:03;;;;;;;6.63;4.40;;;;;;;;;;4872154;29;21215;-86
2024/01/15 18:18:07;;;;;;;7.10;4.00;;;;;;;;;;4872656;29;20618;-86
2024/01/15 18:21:12;;;;;;;7.50;5.53;;;;;;;;;;4872028;29;20540;-87
2024/01/15 18:24:16;;;;;;;5.50;4.43;;;;;;;;;;4873098;29;20618;-86
2024/01/15 18:27:20;;;;;;;6.40;3.90;;;;;;;;;;4872811;29;20543;-86
2024/01/15 18:30:24;;;;;;;7.00;4.53;;;;;;;;;;4883011;29;21084;-86
2024/01/15 18:33:28;;;;;;;4.97;3.90;;;;;;;;;;4882849;29;20547;-87
2024/01/15 18:36:32;;;;;;;5.77;4.13;;;;;;;;;;4871965;29;20547;-86
2024/01/15 18:39:37;;;;;;;6.20;4.10;;;;;;;;;;4872172;29;20599;-86
2024/01/15 18:42:40;;;;;;;6.10;3.63;;;;;;;;;;4861469;29;20555;-86
2024/01/15 18:45:45;;;;;;;6.80;3.93;;;;;;;;;;4882269;29;20618;-87
2024/01/15 18:48:49;;;;;;;5.57;3.93;;;;;;;;;;4872421;29;20543;-86
2024/01/15 18:51:55;;;;;;;4.57;3.40;;;;;;;;;;4872017;29;20898;-86
2024/01/15 18:54:59;;;;;;;4.87;3.60;;;;;;;;;;4872039;29;20627;-86
2024/01/15 18:58:03;;;;;;;6.23;3.57;;;;;;;;;;4872154;29;20547;-86
2024/01/15 19:01:09;;;;;;;5.70;3.83;;;;;;;;;;4871396;29;20547;-86
2024/01/15 19:04:13;;;;;;;4.83;3.90;;;;;;;;;;4871344;29;20618;-86
2024/01/15 19:07:17;;;;;;;5.20;3.73;;;;;;;;;;4861031;29;20551;-86
2024/01/15 19:10:22;;;;;;;5.50;3.83;;;;;;;;;;4862544;29;20543;-86
2024/01/15 19:13:26;;;;;;;6.10;3.83;;;;;;;;;;4872457;29;20606;-86
2024/01/15 19:16:31;;;;;;;5.97;4.20;;;;;;;;;;4861299;29;20547;-86
2024/01/15 19:19:36;;;;;;;5.43;4.00;;;;;;;;;;4871309;29;21160;-86
2024/01/15 19:22:41;;;;;;;6.70;4.30;;;;;;;;;;4861398;29;20571;-86
2024/01/15 19:25:45;;;;;;;9.40;4.40;;;;;;;;;;4871312;29;21037;-86
2024/01/15 19:28:50;;;;;;;7.93;5.43;;;;;;;;;;4871325;29;20547;-85
2024/01/15 19:31:58;;;;;;;7.10;5.00;;;;;;;;;;4872118;29;20544;-86
2024/01/15 19:35:02;;;;;;;7.97;4.87;;;;;;;;;;4871504;29;20630;-87
2024/01/15 19:38:07;;;;;;;6.40;4.33;;;;;;;;;;4873100;29;20552;-88
2024/01/15 19:41:11;;;;;;;9.13;4.63;;;;;;;;;;4871892;29;20556;-88
2024/01/15 19:44:15;;;;;;;7.60;4.53;;;;;;;;;;4874869;29;20626;-88
2024/01/15 19:47:19;;;;;;;7.53;4.30;;;;;;;;;;4874455;29;21089;-88
2024/01/15 19:50:24;;;;;;;6.57;4.63;;;;;;;;;;4874374;29;20535;-88